CDT,Max TemperatureF,Mean TemperatureF,Min TemperatureF,Max Dew PointF,MeanDew PointF,Min DewpointF,Max Humidity, Mean Humidity, Min Humidity, Max Sea Level PressureIn, Mean Sea Level PressureIn, Min Sea Level PressureIn, Max VisibilityMiles, Mean VisibilityMiles, Min VisibilityMiles, Max Wind SpeedMPH, Mean Wind SpeedMPH, Max Gust SpeedMPH,PrecipitationIn, CloudCover, Events, WindDirDegrees
2011-10-1,61,47,33,40,35,30,100,68,36,30.42,30.33,30.28,10,10,10,10,2,13,0.00,0,,102
2011-10-2,71,54,37,49,40,36,100,68,35,30.32,30.26,30.16,10,6,0,8,5,10,0.00,2,Fog,140
2011-10-3,77,60,42,55,47,41,96,67,38,30.27,30.21,30.17,10,10,5,7,3,8,0.00,0,,134
2011-10-4,79,63,47,51,48,45,96,63,30,30.27,30.19,30.12,10,10,9,14,6,17,0.00,0,,149
2011-10-5,83,67,51,51,49,45,89,59,28,30.17,30.13,30.07,10,10,10,15,7,18,0.00,0,,144
2011-10-6,80,65,50,52,50,48,89,62,35,30.18,30.12,30.07,10,10,8,17,7,23,0.00,0,,153
2011-10-7,83,72,61,54,50,44,67,49,30,30.12,30.05,29.97,10,10,10,25,14,33,0.00,0,,171
2011-10-8,83,73,62,55,53,50,67,52,37,30.17,30.11,30.04,10,10,10,21,12,25,0.00,0,,172
2011-10-9,81,68,54,54,51,49,80,58,36,30.27,30.20,30.16,10,10,9,15,8,21,0.00,0,,164
2011-10-10,78,65,51,51,48,45,83,58,33,30.16,30.06,29.95,10,10,7,17,7,22,T,1,,157
2011-10-11,75,65,54,57,55,52,93,73,53,29.97,29.90,29.84,10,9,7,15,6,20,T,2,Rain,155
2011-10-12,73,64,55,61,57,54,93,75,57,29.85,29.71,29.60,10,6,0,22,4,25,0.74,6,Fog-Rain-Thunderstorm,131
2011-10-13,65,58,51,57,52,43,93,75,57,29.61,29.58,29.55,10,8,2,25,12,31,0.56,7,Rain,313
2011-10-14,60,54,47,43,39,35,80,62,44,29.74,29.65,29.58,10,10,10,29,16,38,0.00,3,,300
2011-10-15,61,53,45,38,36,32,71,53,35,29.86,29.82,29.75,10,10,10,26,14,33,T,2,Rain,286
2011-10-16,61,54,46,40,34,27,76,53,30,29.87,29.82,29.80,10,10,10,28,14,38,T,2,,284
2011-10-17,60,51,41,32,29,27,62,46,29,29.87,29.84,29.78,10,10,10,23,12,30,0.00,0,,278
2011-10-18,48,42,35,37,33,30,86,70,53,30.01,29.93,29.81,10,10,10,17,8,23,T,6,Rain,346
2011-10-19,52,46,39,36,34,30,85,66,46,30.02,29.98,29.92,10,10,10,21,12,26,T,7,Rain,356
2011-10-20,56,45,34,34,32,28,79,57,35,29.98,29.87,29.81,10,10,10,24,13,32,0.00,3,,339
2011-10-21,59,44,29,34,30,27,92,63,33,30.09,30.04,29.99,10,10,10,8,3,10,0.00,0,,154
2011-10-22,62,47,32,38,35,31,96,66,36,30.10,30.05,30.00,10,10,5,10,4,13,0.00,0,,305
2011-10-23,69,52,34,46,39,32,96,68,40,30.01,29.89,29.75,10,10,6,22,8,29,0.01,3,Rain-Snow,180
2011-10-24,63,50,36,43,39,36,100,72,43,30.08,30.00,29.94,10,7,1,10,5,15,0.00,1,,154
2011-10-25,60,52,43,45,42,38,93,75,57,29.99,29.87,29.77,10,10,7,18,9,25,0.01,6,Rain,56
2011-10-26,53,45,37,37,34,29,82,62,42,30.09,30.03,29.94,10,10,10,14,5,18,0.00,5,,349
2011-10-27,54,44,34,36,33,29,92,67,41,30.14,30.07,30.02,10,10,10,17,2,24,T,4,,20
2011-10-28,55,43,30,33,30,28,100,69,38,30.15,30.07,30.00,10,9,6,15,5,17,0.00,3,,146
2011-10-29,56,41,26,29,26,21,92,60,28,30.12,30.06,30.01,10,10,10,9,3,15,0.00,0,,147
2011-10-30,48,44,40,43,36,24,93,68,42,30.00,29.88,29.80,10,9,4,20,7,28,0.31,8,Rain,164
2011-10-31,51,44,37,39,37,35,89,73,56,30.06,30.01,29.95,10,9,7,10,5,14,0.00,6,,271